Leiter, WY (82837)

3:48 AM MDT on July 25, 2014 (GMT -0600)
Johnson County (KBYG) Elev 4967 ft | 44.38 °N, 106.72 °W | Change Station

Current weather conditions updated 55 minutes ago

Clear
Clear
55 °F
Feels Like 55 °F
N
5
Wind Variable Wind from West

Today is forecast to be Much Cooler than yesterday.

Today
High -- | Low -- °F
--% Chance of Precip.
Yesterday
High -- | Low -- °F
Precip. -- in
5:43 AM 8:38 PM
Waning Crescent, 2% visible
Pressure 29.88 in
Visibility 10.0 miles
Clouds Clear
Dew Point 46 °F
Humidity 72%
Rainfall 0.00 in
Snow Depth Not available.
UV 0 out of 12
Pollen 6.70 out of 12
Air Quality Not available.
Flu Activity Not available.
METAR KBYG 250853Z AUTO 26004KT 10SM CLR 13/08 A3007 RMK AO2 SLP116 T01280078 50005

More Conditions Fewer Conditions

Pressure 29.88 in
Visibility 10.0 miles
Clouds Clear
Dew Point 46 °F
Humidity 72%
Rainfall 0.00 in
Snow Depth Not available.
UV 0 out of 12
Pollen 6.70 out of 12
Air Quality Not available.
Flu Activity Not available.
METAR KBYG 250853Z AUTO 26004KT 10SM CLR 13/08 A3007 RMK AO2 SLP116 T01280078 50005

More Conditions Fewer Conditions

10-Day Weather Forecast

Almanac

Astronomy

Jul. 25, 2014 Rise Set
Actual Time 5:43 AM MDT 8:38 PM MDT
Civil Twilight 5:08 AM MDT 9:13 PM MDT
Nautical Twilight 4:24 AM MDT 9:56 PM MDT
Astronomical Twilight 3:32 AM MDT 10:48 PM MDT
Moon 4:46 AM MDT 7:35 PM MDT
Length of Visible Light 16h 04m
Length of Day
14h 55m
Tomorrow will be 2m 9s shorter.
Waning Crescent, 2% of the Moon is Illuminated
Today
Waning Crescent
Jul 26
New
Aug 3
First Quarter
Aug 10
Full
Aug 17
Last Quarter

Today's Extremes

State Highs State Lows

Community

WunderPhotos

Upload Photos

1,737,276 photos uploaded!

Nearby

Snow Depth

Station Depth Elevation
Cloud Peak Reservoir 0 in 9860 ft
Bald Mountain 0 in 9380 ft
Casper Mountain 0 in 7850 ft
Reno Hill 0 in 8500 ft
Sylvan Lake 0 in 8420 ft

Earthquake Activity

City Distance Mag. Time & Date
No recent earthquake activity has been reported nearby.
Minimum magnitude displayed is 2.5.

Coastal Water Temperatures

Place Temperature
No Stations Reporting

Nearby Weather Stations

There are no personal weather stations in this area.